sensor_id;sensor_type;location;lat;lon;timestamp;temperature;humidity
23495;DHT22;26107;50.832;2.950;2023-07-29T00:11:35;18.40;99.90
23495;DHT22;26107;50.832;2.950;2023-07-29T00:26:36;18.20;99.90
23495;DHT22;26107;50.832;2.950;2023-07-29T00:41:37;18.40;99.90
23495;DHT22;26107;50.832;2.950;2023-07-29T00:56:37;18.50;99.90
23495;DHT22;26107;50.832;2.950;2023-07-29T01:26:44;18.50;99.90
23495;DHT22;26107;50.832;2.950;2023-07-29T01:41:45;18.50;99.90
23495;DHT22;26107;50.832;2.950;2023-07-29T01:56:48;18.20;99.90
23495;DHT22;26107;50.832;2.950;2023-07-29T02:11:51;18.10;99.90
23495;DHT22;26107;50.832;2.950;2023-07-29T02:26:54;18.10;99.90
23495;DHT22;26107;50.832;2.950;2023-07-29T02:41:54;17.70;99.90
23495;DHT22;26107;50.832;2.950;2023-07-29T02:56:56;17.80;99.90
23495;DHT22;26107;50.832;2.950;2023-07-29T03:11:56;17.90;99.90
23495;DHT22;26107;50.832;2.950;2023-07-29T03:26:59;18.00;99.90
23495;DHT22;26107;50.832;2.950;2023-07-29T03:42:00;18.00;99.90
23495;DHT22;26107;50.832;2.950;2023-07-29T03:57:00;17.50;99.90
23495;DHT22;26107;50.832;2.950;2023-07-29T04:12:01;17.60;99.90
23495;DHT22;26107;50.832;2.950;2023-07-29T04:27:02;17.70;99.90
23495;DHT22;26107;50.832;2.950;2023-07-29T04:42:02;17.60;99.90
23495;DHT22;26107;50.832;2.950;2023-07-29T04:57:03;17.60;99.90
23495;DHT22;26107;50.832;2.950;2023-07-29T05:12:06;17.50;99.90
23495;DHT22;26107;50.832;2.950;2023-07-29T05:27:07;17.80;99.90
23495;DHT22;26107;50.832;2.950;2023-07-29T05:42:08;17.70;99.90
23495;DHT22;26107;50.832;2.950;2023-07-29T05:57:12;17.50;99.90
23495;DHT22;26107;50.832;2.950;2023-07-29T06:12:12;17.80;99.90
23495;DHT22;26107;50.832;2.950;2023-07-29T06:27:13;17.90;99.90
23495;DHT22;26107;50.832;2.950;2023-07-29T06:42:16;17.90;99.90
23495;DHT22;26107;50.832;2.950;2023-07-29T06:57:18;18.20;99.90
23495;DHT22;26107;50.832;2.950;2023-07-29T07:12:21;18.50;99.90
23495;DHT22;26107;50.832;2.950;2023-07-29T07:27:22;18.50;99.90
23495;DHT22;26107;50.832;2.950;2023-07-29T07:42:22;19.10;99.90
23495;DHT22;26107;50.832;2.950;2023-07-29T07:57:23;19.30;99.90
23495;DHT22;26107;50.832;2.950;2023-07-29T08:12:23;19.30;99.90
23495;DHT22;26107;50.832;2.950;2023-07-29T08:27:24;19.20;99.90
23495;DHT22;26107;50.832;2.950;2023-07-29T08:42:27;18.90;99.90
23495;DHT22;26107;50.832;2.950;2023-07-29T08:57:29;18.60;99.90
23495;DHT22;26107;50.832;2.950;2023-07-29T09:12:29;18.30;99.90
23495;DHT22;26107;50.832;2.950;2023-07-29T09:27:32;19.00;99.90
23495;DHT22;26107;50.832;2.950;2023-07-29T09:42:35;19.10;99.90
23495;DHT22;26107;50.832;2.950;2023-07-29T09:57:39;19.00;99.90
23495;DHT22;26107;50.832;2.950;2023-07-29T10:12:39;17.90;99.90
23495;DHT22;26107;50.832;2.950;2023-07-29T11:13:07;20.30;99.90
23495;DHT22;26107;50.832;2.950;2023-07-29T11:28:07;20.70;99.90
23495;DHT22;26107;50.832;2.950;2023-07-29T11:43:16;21.10;99.90
23495;DHT22;26107;50.832;2.950;2023-07-29T11:58:20;21.60;99.90
23495;DHT22;26107;50.832;2.950;2023-07-29T12:13:24;21.20;99.90
23495;DHT22;26107;50.832;2.950;2023-07-29T12:28:25;20.80;99.90
23495;DHT22;26107;50.832;2.950;2023-07-29T12:43:26;20.20;99.90
23495;DHT22;26107;50.832;2.950;2023-07-29T12:58:31;19.70;99.90
23495;DHT22;26107;50.832;2.950;2023-07-29T13:13:32;19.40;99.90
23495;DHT22;26107;50.832;2.950;2023-07-29T13:28:32;19.90;99.90
23495;DHT22;26107;50.832;2.950;2023-07-29T13:43:33;20.50;99.90
23495;DHT22;26107;50.832;2.950;2023-07-29T13:58:33;20.90;99.90
23495;DHT22;26107;50.832;2.950;2023-07-29T14:13:36;20.90;99.90
23495;DHT22;26107;50.832;2.950;2023-07-29T14:28:36;21.20;99.90
23495;DHT22;26107;50.832;2.950;2023-07-29T14:43:37;21.40;99.90
23495;DHT22;26107;50.832;2.950;2023-07-29T14:58:40;21.30;99.90
23495;DHT22;26107;50.832;2.950;2023-07-29T15:13:43;21.50;99.90
23495;DHT22;26107;50.832;2.950;2023-07-29T15:28:43;21.50;99.90
23495;DHT22;26107;50.832;2.950;2023-07-29T15:43:46;21.40;99.90
23495;DHT22;26107;50.832;2.950;2023-07-29T15:58:49;21.80;99.90
23495;DHT22;26107;50.832;2.950;2023-07-29T16:13:50;22.40;99.90
23495;DHT22;26107;50.832;2.950;2023-07-29T16:28:50;24.00;99.90
23495;DHT22;26107;50.832;2.950;2023-07-29T16:43:53;25.70;99.90
23495;DHT22;26107;50.832;2.950;2023-07-29T16:58:54;25.60;99.90
23495;DHT22;26107;50.832;2.950;2023-07-29T17:13:54;26.80;98.80
23495;DHT22;26107;50.832;2.950;2023-07-29T17:28:55;28.30;97.90
23495;DHT22;26107;50.832;2.950;2023-07-29T17:43:55;27.40;96.60
23495;DHT22;26107;50.832;2.950;2023-07-29T17:58:58;26.30;98.10
23495;DHT22;26107;50.832;2.950;2023-07-29T18:14:01;24.70;98.90
23495;DHT22;26107;50.832;2.950;2023-07-29T18:29:02;24.80;99.90
23495;DHT22;26107;50.832;2.950;2023-07-29T18:44:02;22.80;99.90
23495;DHT22;26107;50.832;2.950;2023-07-29T18:59:03;22.00;99.90
23495;DHT22;26107;50.832;2.950;2023-07-29T19:14:08;20.70;99.90
23495;DHT22;26107;50.832;2.950;2023-07-29T19:29:11;20.40;99.90
23495;DHT22;26107;50.832;2.950;2023-07-29T19:44:17;19.80;99.90
23495;DHT22;26107;50.832;2.950;2023-07-29T19:59:17;19.30;99.90
23495;DHT22;26107;50.832;2.950;2023-07-29T20:14:18;18.90;99.90
23495;DHT22;26107;50.832;2.950;2023-07-29T20:29:19;18.90;99.90
23495;DHT22;26107;50.832;2.950;2023-07-29T20:44:22;18.60;99.90
23495;DHT22;26107;50.832;2.950;2023-07-29T20:59:26;18.20;99.90
23495;DHT22;26107;50.832;2.950;2023-07-29T21:14:29;18.10;99.90
23495;DHT22;26107;50.832;2.950;2023-07-29T21:29:34;18.10;99.90
23495;DHT22;26107;50.832;2.950;2023-07-29T21:44:35;17.80;99.90
23495;DHT22;26107;50.832;2.950;2023-07-29T21:59:35;17.80;99.90
23495;DHT22;26107;50.832;2.950;2023-07-29T22:14:38;17.60;99.90
23495;DHT22;26107;50.832;2.950;2023-07-29T22:29:38;17.50;99.90
23495;DHT22;26107;50.832;2.950;2023-07-29T22:44:39;17.30;99.90
23495;DHT22;26107;50.832;2.950;2023-07-29T22:59:39;17.30;99.90
23495;DHT22;26107;50.832;2.950;2023-07-29T23:14:40;17.10;99.90
23495;DHT22;26107;50.832;2.950;2023-07-29T23:29:42;16.80;99.90
23495;DHT22;26107;50.832;2.950;2023-07-29T23:44:43;16.50;99.90
23495;DHT22;26107;50.832;2.950;2023-07-29T23:59:46;16.50;99.90
